Isle of Iona, United Kingdom
Current Conditions -  °F | °C
As of 1:50 AM on Sunday 26 Oct 2014 (Local Time) from EGPU Reporting Station
Broken Clouds Broken Clouds  
Wind Chill: 54°   Ceiling: 4700
Heat Index: 54°   Visibility: 6mi
Dew Point: 48°   Wind: 33mph
Humidity: 82%   Direction: 240°WSW
Pressure: 29.53"   Gusts: 46mph
Location:  56.33°N, 6.39°W
Report Text: EGPU 260050Z AUTO 24029G40KT 200V260 9999 FEW023/// SCT028/// BKN047/// 12/09 Q1000 RERA
Loading
Personal Weather Stations






























Interactive Weather Map
Tropical Storm Tracking
New forecast layout! Learn more

10-Day Weather Forecast

Advertisements
Track Severe Weather on mobile